Time;durP1;ratioP1;P1;durP2;ratioP2;P2;SDS_P1;SDS_P2;PMS_P1;PMS_P2;Temp;Humidity;BMP_temperature;BMP_pressure;BME280_temperature;BME280_humidity;BME280_pressure;Samples;Min_cycle;Max_cycle;Signal;HPM_P1;HPM_P2
2022/05/09 00:01:29;;;;;;;9.35;2.97;;;;;;;9.92;65.66;102635.41;4822315;29;20065;-71
2022/05/09 00:03:55;;;;;;;6.03;2.83;;;;;;;9.87;65.87;102637.66;4822281;29;20030;-71
2022/05/09 00:06:20;;;;;;;10.50;3.70;;;;;;;9.80;66.64;102633.94;4822448;29;20026;-71
2022/05/09 00:08:45;;;;;;;7.00;3.08;;;;;;;9.70;66.66;102628.63;4822197;29;20172;-71
2022/05/09 00:11:12;;;;;;;6.72;2.72;;;;;;;9.69;66.56;102634.94;4822342;29;20080;-71
2022/05/09 00:13:38;;;;;;;11.15;3.50;;;;;;;9.63;66.93;102630.22;4822237;29;20119;-71
2022/05/09 00:16:04;;;;;;;10.05;4.28;;;;;;;9.63;67.25;102631.03;4822308;29;20416;-71
2022/05/09 00:18:31;;;;;;;10.77;3.05;;;;;;;9.59;67.43;102621.69;4822258;29;20039;-71
2022/05/09 00:20:56;;;;;;;9.60;3.50;;;;;;;9.56;67.66;102623.78;4822151;29;20395;-71
2022/05/09 00:23:21;;;;;;;7.65;2.75;;;;;;;9.53;67.79;102621.41;4822142;29;20037;-71
2022/05/09 00:25:47;;;;;;;10.88;3.58;;;;;;;9.51;68.18;102620.72;4821764;29;20103;-71
2022/05/09 00:28:12;;;;;;;7.40;3.22;;;;;;;9.48;68.07;102619.19;4821543;29;20026;-71
2022/05/09 00:30:38;;;;;;;9.93;3.20;;;;;;;9.44;68.38;102621.31;4821663;29;20030;-71
2022/05/09 00:33:04;;;;;;;10.07;3.30;;;;;;;9.39;68.39;102618.22;4821968;29;20042;-71
2022/05/09 00:35:29;;;;;;;9.13;3.72;;;;;;;9.30;69.06;102619.13;4822086;29;20116;-71
2022/05/09 00:37:54;;;;;;;6.47;3.05;;;;;;;9.31;69.16;102622.63;4821878;29;20184;-71
2022/05/09 00:40:20;;;;;;;8.40;3.05;;;;;;;9.26;69.46;102614.22;4805459;29;20038;-71
2022/05/09 00:42:48;;;;;;;10.13;3.35;;;;;;;9.23;69.57;102620.69;4821740;29;20042;-72
2022/05/09 00:45:14;;;;;;;5.40;2.97;;;;;;;9.20;69.56;102621.81;4821506;29;20865;-71
2022/05/09 00:47:40;;;;;;;10.50;3.28;;;;;;;9.13;69.81;102615.38;4821720;29;20034;-71
2022/05/09 00:50:08;;;;;;;11.98;3.20;;;;;;;9.10;69.96;102620.16;4821751;29;20042;-71
2022/05/09 00:52:43;;;;;;;11.40;3.47;;;;;;;9.05;70.18;102625.06;4821777;29;20075;-71
2022/05/09 00:55:27;;;;;;;8.68;3.22;;;;;;;8.99;70.06;102621.16;4821343;29;20259;-71
2022/05/09 00:58:04;;;;;;;7.63;4.03;;;;;;;8.93;70.31;102619.91;4821596;29;20042;-71
2022/05/09 01:00:29;;;;;;;12.73;3.15;;;;;;;8.90;70.76;102620.16;4821406;29;20474;-71
2022/05/09 01:03:30;;;;;;;7.55;3.15;;;;;;;8.86;70.19;102609.97;4821499;29;20145;-71
2022/05/09 01:05:55;;;;;;;6.10;3.63;;;;;;;8.85;71.31;102614.41;4821527;29;20082;-71
2022/05/09 01:08:23;;;;;;;13.35;3.60;;;;;;;8.83;71.40;102610.22;4821690;29;20111;-71
2022/05/09 01:10:49;;;;;;;4.85;3.00;;;;;;;8.76;71.99;102597.50;4821387;29;20042;-71
2022/05/09 01:13:18;;;;;;;7.30;3.58;;;;;;;8.74;72.44;102604.78;4821289;29;20083;-71
2022/05/09 01:15:47;;;;;;;8.98;3.50;;;;;;;8.72;72.48;102598.78;4821358;29;20483;-71
2022/05/09 01:18:16;;;;;;;8.20;3.13;;;;;;;8.72;72.35;102600.56;4821366;29;20045;-71
2022/05/09 01:20:42;;;;;;;11.70;3.95;;;;;;;8.71;72.53;102599.75;4821393;29;20475;-71
2022/05/09 01:23:10;;;;;;;10.13;2.95;;;;;;;8.69;72.43;102598.19;4821080;29;20034;-71
2022/05/09 01:25:36;;;;;;;6.13;3.30;;;;;;;8.62;72.87;102595.28;4821637;29;20046;-71
2022/05/09 01:28:01;;;;;;;11.55;3.58;;;;;;;8.56;73.01;102591.34;4820519;29;20121;-72
2022/05/09 01:30:38;;;;;;;9.35;4.05;;;;;;;8.54;73.12;102590.66;4820523;29;20734;-72
2022/05/09 01:33:12;;;;;;;7.93;2.78;;;;;;;8.53;73.17;102588.13;4820820;29;20514;-71
2022/05/09 01:35:49;;;;;;;11.80;4.30;;;;;;;8.47;73.29;102592.19;4821007;29;20034;-71
2022/05/09 01:38:27;;;;;;;8.95;3.45;;;;;;;8.44;73.47;102591.66;4821092;29;20034;-71
2022/05/09 01:40:53;;;;;;;10.82;3.22;;;;;;;8.41;74.12;102595.41;4820917;29;20072;-71
2022/05/09 01:43:28;;;;;;;8.98;2.92;;;;;;;8.33;73.79;102585.44;4821035;29;20479;-71
2022/05/09 01:45:54;;;;;;;13.27;4.07;;;;;;;8.32;74.26;102585.56;4820903;29;20034;-71
2022/05/09 01:51:03;;;;;;;10.50;3.47;;;;;;;8.25;74.30;102587.97;4821055;29;20098;-71
2022/05/09 01:53:29;;;;;;;23.58;4.55;;;;;;;8.24;74.69;102593.41;4820903;29;20498;-71
2022/05/09 01:55:55;;;;;;;34.83;6.28;;;;;;;8.19;75.31;102588.50;4820382;29;20035;-71
2022/05/09 01:58:20;;;;;;;7.57;3.30;;;;;;;8.14;75.66;102590.72;4820311;29;20042;-71
2022/05/09 02:00:46;;;;;;;11.30;3.25;;;;;;;8.12;75.42;102590.00;4820690;29;20026;-71
2022/05/09 02:03:11;;;;;;;9.65;3.53;;;;;;;8.06;75.70;102585.25;4820526;29;20073;-71
2022/05/09 02:05:37;;;;;;;9.60;3.72;;;;;;;8.10;75.91;102599.97;4820745;29;20128;-71
2022/05/09 02:08:03;;;;;;;10.05;4.07;;;;;;;8.01;75.55;102577.69;4820706;29;20034;-71
2022/05/09 02:10:28;;;;;;;16.75;3.50;;;;;;;8.01;75.85;102575.03;4804215;29;20099;-71
2022/05/09 02:12:54;;;;;;;10.00;4.25;;;;;;;8.08;75.77;102589.47;4820601;29;20067;-71
2022/05/09 02:15:19;;;;;;;11.38;3.28;;;;;;;8.08;76.12;102592.13;4820489;29;20066;-71
2022/05/09 02:17:47;;;;;;;13.40;4.07;;;;;;;8.09;76.01;102587.63;4820881;29;20034;-71
2022/05/09 02:20:13;;;;;;;13.05;3.83;;;;;;;8.07;75.75;102593.09;4820491;29;20053;-71
2022/05/09 02:22:38;;;;;;;9.27;3.85;;;;;;;8.04;76.35;102584.56;4820565;29;20034;-71
2022/05/09 02:25:26;;;;;;;13.68;3.40;;;;;;;8.01;76.23;102580.34;4820507;29;20038;-71
2022/05/09 02:27:49;;;;;;;11.23;3.88;;;;;;;7.99;76.41;102581.47;4820475;29;20073;-71
2022/05/09 02:30:15;;;;;;;12.73;4.88;;;;;;;7.97;76.63;102586.94;4820436;29;20056;-71
2022/05/09 02:32:40;;;;;;;11.15;4.15;;;;;;;7.95;76.36;102580.06;4820179;29;20042;-71
2022/05/09 02:35:06;;;;;;;10.35;3.60;;;;;;;7.90;76.77;102583.97;4820197;29;20040;-71
2022/05/09 02:37:32;;;;;;;9.95;3.53;;;;;;;7.87;77.26;102586.91;4820429;29;20074;-71
2022/05/09 02:39:58;;;;;;;13.45;4.43;;;;;;;7.83;76.92;102584.66;4820380;29;20046;-71
2022/05/09 02:42:23;;;;;;;12.18;3.47;;;;;;;7.81;77.00;102579.47;4820333;29;20122;-71
2022/05/09 02:44:50;;;;;;;12.80;4.18;;;;;;;7.78;76.96;102579.75;4820019;29;20056;-71
2022/05/09 02:47:17;;;;;;;13.15;5.18;;;;;;;7.74;77.45;102578.34;4820228;29;20122;-71
2022/05/09 02:49:42;;;;;;;7.18;3.28;;;;;;;7.71;77.64;102573.31;4820099;29;20035;-71
2022/05/09 02:52:08;;;;;;;8.48;3.80;;;;;;;7.69;78.18;102578.72;4820063;29;20057;-71
2022/05/09 02:54:33;;;;;;;15.50;3.58;;;;;;;7.72;77.87;102574.97;4820038;29;20133;-70
2022/05/09 02:56:58;;;;;;;9.52;3.78;;;;;;;7.71;77.56;102575.13;4820261;29;20104;-71
2022/05/09 02:59:24;;;;;;;13.25;4.28;;;;;;;7.68;77.73;102576.25;4803854;29;20116;-70
2022/05/09 03:01:49;;;;;;;14.88;6.75;;;;;;;7.66;77.75;102579.00;4819973;29;20054;-71
2022/05/09 03:07:00;;;;;;;10.82;3.63;;;;;;;7.59;77.78;102571.72;4820283;29;20070;-71
2022/05/09 03:09:25;;;;;;;17.05;4.15;;;;;;;7.54;78.12;102574.75;4822759;29;20119;-71
2022/05/09 03:11:50;;;;;;;11.38;4.40;;;;;;;7.51;78.14;102574.19;4807052;29;20496;-71
2022/05/09 03:14:16;;;;;;;8.57;3.55;;;;;;;7.48;78.45;102570.00;4823091;29;20530;-71
2022/05/09 03:16:41;;;;;;;12.32;3.58;;;;;;;7.45;78.61;102572.94;4822650;29;20037;-70
2022/05/09 03:19:06;;;;;;;10.20;3.58;;;;;;;7.44;78.48;102564.13;4822652;29;20041;-71
2022/05/09 03:21:32;;;;;;;13.23;3.97;;;;;;;7.43;78.48;102569.56;4822538;29;20035;-71
2022/05/09 03:23:57;;;;;;;12.25;6.18;;;;;;;7.44;79.29;102564.13;4822596;29;20137;-70
2022/05/09 03:26:22;;;;;;;11.45;4.60;;;;;;;7.43;78.74;102566.91;4822495;29;20050;-70
2022/05/09 03:28:48;;;;;;;13.80;3.72;;;;;;;7.43;78.80;102562.44;4822744;29;20095;-71
2022/05/09 03:31:13;;;;;;;8.38;3.42;;;;;;;7.45;78.63;102559.66;4822325;29;20049;-70
2022/05/09 03:33:40;;;;;;;14.13;4.05;;;;;;;7.39;78.46;102557.56;4822850;29;20034;-70
2022/05/09 03:36:05;;;;;;;12.90;3.40;;;;;;;7.36;78.72;102557.78;4822402;29;20072;-70
2022/05/09 03:38:31;;;;;;;9.70;4.40;;;;;;;7.31;79.09;102558.22;4822666;29;20439;-71
2022/05/09 03:40:57;;;;;;;12.18;4.82;;;;;;;7.29;79.48;102557.50;4822601;29;20048;-71
2022/05/09 03:43:23;;;;;;;15.52;3.40;;;;;;;7.30;78.80;102558.34;4822885;29;20034;-70
2022/05/09 03:45:50;;;;;;;10.23;4.03;;;;;;;7.25;78.54;102554.25;4822867;29;20114;-71
2022/05/09 03:48:16;;;;;;;9.88;3.70;;;;;;;7.24;79.07;102562.34;4822492;29;20039;-70
2022/05/09 03:50:41;;;;;;;11.73;4.63;;;;;;;7.14;79.52;102545.56;4822608;29;20066;-71
2022/05/09 03:53:07;;;;;;;13.20;3.75;;;;;;;7.17;79.83;102566.50;4822674;29;20114;-71
2022/05/09 03:55:35;;;;;;;10.65;3.72;;;;;;;7.13;79.50;102560.63;4822329;29;20133;-70
2022/05/09 03:58:01;;;;;;;7.95;3.38;;;;;;;7.06;80.18;102548.84;4822383;29;20168;-71
2022/05/09 04:00:29;;;;;;;12.45;4.00;;;;;;;7.13;80.15;102557.16;4822183;29;20479;-70
2022/05/09 04:02:54;;;;;;;12.63;3.78;;;;;;;7.11;79.83;102557.25;4822178;29;20050;-71
2022/05/09 04:05:20;;;;;;;12.27;3.88;;;;;;;7.10;79.83;102560.91;4822194;29;20499;-71
2022/05/09 04:07:51;;;;;;;13.77;4.90;;;;;;;7.09;80.39;102553.06;4822180;29;20030;-71
2022/05/09 04:10:23;;;;;;;10.10;3.87;;;;;;;7.05;80.08;102554.28;4805901;29;20038;-70
2022/05/09 04:12:48;;;;;;;15.60;4.20;;;;;;;7.02;80.35;102555.38;4822337;29;20307;-70
2022/05/09 04:17:58;;;;;;;15.20;4.35;;;;;;;6.96;80.21;102546.16;4822417;29;20045;-70
2022/05/09 04:20:25;;;;;;;11.95;5.13;;;;;;;6.99;80.59;102553.84;4821450;29;20023;-71
2022/05/09 04:22:54;;;;;;;14.20;4.85;;;;;;;7.00;80.76;102555.53;4821947;29;20121;-70
2022/05/09 04:25:20;;;;;;;8.40;3.88;;;;;;;7.02;81.52;102558.03;4822516;29;20398;-70
2022/05/09 04:27:45;;;;;;;10.75;4.65;;;;;;;6.99;81.63;102553.84;4822017;29;20038;-71
2022/05/09 04:30:12;;;;;;;12.02;4.63;;;;;;;6.99;81.51;102550.34;4821783;29;20042;-70
2022/05/09 04:32:39;;;;;;;16.80;4.88;;;;;;;7.06;81.24;102551.50;4821948;29;20041;-70
2022/05/09 04:35:05;;;;;;;15.55;3.67;;;;;;;7.15;80.78;102547.22;4821779;29;20095;-71
2022/05/09 04:37:30;;;;;;;12.95;4.93;;;;;;;7.20;80.81;102542.34;4821591;29;20470;-71
2022/05/09 04:39:56;;;;;;;12.77;4.25;;;;;;;7.62;81.23;102536.91;4821509;29;21108;-70
2022/05/09 04:42:22;;;;;;;12.20;4.47;;;;;;;8.73;77.98;102541.94;4821806;29;20952;-71
2022/05/09 04:44:47;;;;;;;15.27;4.10;;;;;;;9.79;73.52;102541.63;4821831;29;20040;-71
2022/05/09 04:47:13;;;;;;;11.10;4.00;;;;;;;10.61;70.36;102547.75;4821602;29;20150;-71
2022/05/09 04:49:39;;;;;;;7.95;4.20;;;;;;;11.51;67.07;102542.97;4821679;29;20038;-71
2022/05/09 04:52:05;;;;;;;13.30;3.15;;;;;;;12.42;64.01;102534.16;4821326;29;20065;-71
2022/05/09 04:54:30;;;;;;;13.52;4.82;;;;;;;13.21;60.97;102537.88;4821502;29;20046;-71
2022/05/09 04:56:55;;;;;;;10.48;4.80;;;;;;;13.76;58.85;102536.16;4805294;29;20879;-71
2022/05/09 04:59:21;;;;;;;7.68;3.50;;;;;;;14.07;57.49;102527.22;4821644;29;20427;-71
2022/05/09 05:01:46;;;;;;;10.93;3.75;;;;;;;14.13;57.19;102526.53;4821228;29;20483;-71
2022/05/09 05:04:13;;;;;;;13.05;4.65;;;;;;;13.78;57.24;102534.09;4821509;29;20440;-71
2022/05/09 05:06:38;;;;;;;8.95;3.67;;;;;;;12.93;59.54;102534.75;4821385;29;20041;-72
2022/05/09 05:09:04;;;;;;;8.25;4.28;;;;;;;12.25;61.71;102533.31;4821623;29;20034;-72
2022/05/09 05:11:29;;;;;;;11.70;4.25;;;;;;;11.82;63.60;102532.53;4821369;29;20046;-71
2022/05/09 05:13:54;;;;;;;17.35;4.60;;;;;;;11.47;63.92;102526.41;4820617;29;20485;-71
2022/05/09 05:16:59;;;;;;;11.73;4.75;;;;;;;11.20;64.46;102530.13;4821498;29;20517;-71
2022/05/09 05:19:05;;;;;;;13.93;5.07;;;;;;;10.99;66.25;102525.19;4821222;29;20086;-71
2022/05/09 05:21:31;;;;;;;12.50;3.88;;;;;;;10.86;67.01;102535.44;4821193;29;20416;-71
2022/05/09 05:23:56;;;;;;;17.50;5.18;;;;;;;10.77;66.61;102529.22;4820813;29;20095;-71
2022/05/09 05:26:22;;;;;;;11.35;4.55;;;;;;;10.73;66.80;102531.34;4821124;29;20053;-71
2022/05/09 05:28:47;;;;;;;14.27;5.00;;;;;;;10.74;67.40;102538.38;4821145;29;20034;-71
2022/05/09 05:31:18;;;;;;;13.55;4.97;;;;;;;10.72;66.61;102536.88;4820935;29;20042;-71
2022/05/09 05:33:44;;;;;;;12.45;4.38;;;;;;;10.73;67.11;102535.84;4820984;29;20386;-71
2022/05/09 05:36:09;;;;;;;17.95;4.32;;;;;;;10.66;65.80;102537.47;4820857;29;20034;-71
2022/05/09 05:38:35;;;;;;;10.80;4.45;;;;;;;10.58;67.22;102542.75;4820858;29;20049;-71
2022/05/09 05:41:00;;;;;;;10.68;4.40;;;;;;;10.51;67.97;102542.53;4820981;29;20030;-71
2022/05/09 05:43:25;;;;;;;10.93;4.85;;;;;;;10.51;67.71;102539.88;4820798;29;20041;-71
2022/05/09 05:45:58;;;;;;;12.10;5.90;;;;;;;10.54;67.95;102534.22;4820664;29;20099;-71
2022/05/09 05:48:24;;;;;;;24.35;5.60;;;;;;;10.59;67.83;102545.28;4820568;29;20030;-71
2022/05/09 05:50:51;;;;;;;11.82;4.68;;;;;;;10.59;66.57;102534.59;4821078;29;20145;-71
2022/05/09 05:53:16;;;;;;;15.60;4.50;;;;;;;10.70;67.68;102542.34;4804480;29;20030;-71
2022/05/09 05:55:42;;;;;;;14.80;4.85;;;;;;;10.81;67.55;102543.09;4804238;29;20046;-71
2022/05/09 05:58:07;;;;;;;14.18;4.57;;;;;;;10.91;67.43;102539.31;4820888;29;20038;-71
2022/05/09 06:00:33;;;;;;;12.85;4.32;;;;;;;11.01;66.94;102535.72;4820889;29;20042;-71
2022/05/09 06:02:58;;;;;;;12.98;4.60;;;;;;;11.06;66.32;102530.75;4820555;29;20411;-71
2022/05/09 06:05:24;;;;;;;16.17;5.05;;;;;;;11.10;66.57;102532.91;4820717;29;20081;-70
2022/05/09 06:07:55;;;;;;;12.95;4.55;;;;;;;11.12;66.06;102538.09;4820631;29;20049;-71
2022/05/09 06:10:20;;;;;;;12.10;5.25;;;;;;;11.29;65.52;102531.00;4820496;29;20030;-71
2022/05/09 06:12:46;;;;;;;15.57;4.93;;;;;;;11.33;65.01;102533.19;4820549;29;20045;-71
2022/05/09 06:17:57;;;;;;;10.63;4.82;;;;;;;11.37;65.03;102528.38;4820445;29;20078;-71
2022/05/09 06:20:23;;;;;;;11.50;5.07;;;;;;;11.49;64.99;102540.44;4820036;29;20035;-71
2022/05/09 06:22:49;;;;;;;12.82;5.00;;;;;;;11.54;65.18;102540.81;4820474;29;20094;-71
2022/05/09 06:25:17;;;;;;;12.18;4.75;;;;;;;11.57;64.88;102535.13;4820456;29;20038;-70
2022/05/09 06:27:42;;;;;;;14.15;5.55;;;;;;;11.66;64.25;102533.34;4820361;29;20577;-71
2022/05/09 06:30:11;;;;;;;18.50;6.55;;;;;;;11.63;63.86;102531.81;4820384;29;20034;-70
2022/05/09 06:32:37;;;;;;;12.50;5.72;;;;;;;11.70;65.01;102525.81;4820282;29;20045;-70
2022/05/09 06:35:08;;;;;;;23.27;7.40;;;;;;;11.77;64.63;102530.34;4820301;29;20392;-71
2022/05/09 06:37:35;;;;;;;12.35;6.53;;;;;;;11.82;65.18;102528.03;4820642;29;20443;-72
2022/05/09 06:40:01;;;;;;;20.00;5.43;;;;;;;11.94;64.91;102530.41;4820225;29;20537;-72
2022/05/09 06:42:30;;;;;;;14.15;5.72;;;;;;;12.02;64.43;102535.78;4820398;29;20073;-72
2022/05/09 06:44:56;;;;;;;17.80;5.93;;;;;;;12.08;63.31;102527.13;4823723;29;20038;-72
2022/05/09 06:47:21;;;;;;;14.63;5.57;;;;;;;12.12;63.50;102527.59;4823796;29;20281;-72
2022/05/09 06:49:47;;;;;;;11.23;5.43;;;;;;;12.15;63.08;102522.75;4823652;29;20034;-72
2022/05/09 06:52:12;;;;;;;14.35;6.35;;;;;;;12.19;64.43;102523.28;4823673;29;20042;-71
2022/05/09 06:54:38;;;;;;;13.32;5.45;;;;;;;12.24;63.63;102513.75;4823336;29;20096;-71
2022/05/09 06:57:04;;;;;;;14.77;6.38;;;;;;;12.31;63.21;102513.91;4823357;29;20038;-71
2022/05/09 06:59:32;;;;;;;18.40;6.28;;;;;;;12.40;65.02;102518.25;4823180;29;20058;-71
2022/05/09 07:01:57;;;;;;;15.75;5.93;;;;;;;12.50;63.92;102524.28;4823280;29;20691;-70
2022/05/09 07:04:23;;;;;;;21.13;5.40;;;;;;;12.60;62.45;102517.91;4823405;29;20147;-70
2022/05/09 07:06:48;;;;;;;12.48;4.95;;;;;;;12.66;62.15;102517.25;4823343;29;20069;-70
2022/05/09 07:09:15;;;;;;;17.20;6.78;;;;;;;12.72;61.94;102514.72;4823281;29;20034;-70
2022/05/09 07:11:41;;;;;;;16.30;5.95;;;;;;;12.75;61.75;102510.84;4823204;29;20125;-70
2022/05/09 07:14:07;;;;;;;14.57;5.78;;;;;;;12.86;61.85;102517.69;4823136;29;20534;-70
2022/05/09 07:16:33;;;;;;;9.27;4.85;;;;;;;12.93;62.81;102510.66;4823209;29;20046;-71
2022/05/09 07:18:58;;;;;;;16.38;5.20;;;;;;;13.04;64.17;102520.16;4823195;29;20585;-73
2022/05/09 07:21:25;;;;;;;16.60;6.55;;;;;;;13.06;60.70;102504.75;4823173;29;20106;-73
2022/05/09 07:23:50;;;;;;;12.85;5.82;;;;;;;13.15;61.53;102509.94;4822856;29;20034;-73
2022/05/09 07:26:16;;;;;;;17.42;5.82;;;;;;;13.25;62.48;102516.91;4823052;29;20091;-73
2022/05/09 07:28:42;;;;;;;15.60;5.72;;;;;;;13.41;62.34;102510.69;4823135;29;20129;-72
2022/05/09 07:31:08;;;;;;;17.02;6.25;;;;;;;13.53;61.07;102506.59;4822956;29;20042;-71
2022/05/09 07:33:34;;;;;;;11.90;4.55;;;;;;;13.70;61.04;102510.88;4822848;29;20054;-72
2022/05/09 07:35:59;;;;;;;13.05;5.18;;;;;;;13.90;61.01;102521.97;4822463;29;20031;-73
2022/05/09 07:38:25;;;;;;;9.98;4.93;;;;;;;13.96;60.42;102515.91;4822257;29;20080;-72
2022/05/09 07:40:51;;;;;;;12.18;4.65;;;;;;;14.00;60.58;102516.38;4822439;29;20372;-73
2022/05/09 07:43:23;;;;;;;11.05;6.32;;;;;;;14.01;60.13;102508.13;4822451;29;20042;-73
2022/05/09 07:45:50;;;;;;;14.95;6.15;;;;;;;14.13;61.53;102510.44;4822629;29;20053;-73
2022/05/09 07:48:16;;;;;;;9.90;4.88;;;;;;;14.25;60.84;102515.19;4822566;29;20570;-73
2022/05/09 07:50:43;;;;;;;14.68;6.57;;;;;;;14.36;59.57;102510.41;4822384;29;20049;-73
2022/05/09 07:53:11;;;;;;;22.90;6.43;;;;;;;14.45;58.61;102510.13;4822451;29;20094;-73
2022/05/09 07:55:37;;;;;;;12.20;5.05;;;;;;;14.55;58.74;102514.47;4821317;29;20512;-73
2022/05/09 07:58:03;;;;;;;15.88;6.22;;;;;;;14.66;58.66;102517.53;4822554;29;20031;-73
2022/05/09 08:00:28;;;;;;;16.80;5.95;;;;;;;14.90;58.76;102512.94;4806384;29;20390;-73
2022/05/09 08:02:54;;;;;;;14.85;6.75;;;;;;;15.35;58.28;102511.03;4822677;29;20058;-73
2022/05/09 08:05:19;;;;;;;10.68;5.20;;;;;;;16.73;54.30;102507.25;4822482;29;20049;-74
2022/05/09 08:07:44;;;;;;;11.60;5.15;;;;;;;19.35;47.75;102506.44;4791323;29;20173;-73
2022/05/09 08:10:11;;;;;;;11.52;5.13;;;;;;;21.80;41.86;102499.00;4822435;29;20034;-73
2022/05/09 08:12:38;;;;;;;10.23;5.20;;;;;;;23.96;37.95;102508.94;4822233;29;20030;-73
2022/05/09 08:15:04;;;;;;;11.43;6.03;;;;;;;25.34;35.43;102511.00;4822172;29;20041;-73
2022/05/09 08:17:32;;;;;;;8.55;4.68;;;;;;;26.50;31.93;102506.03;4822226;29;20049;-73
2022/05/09 08:19:57;;;;;;;10.15;4.53;;;;;;;27.61;30.24;102506.78;4822250;29;20034;-74
2022/05/09 08:22:24;;;;;;;9.57;4.50;;;;;;;28.34;28.63;102503.00;4822180;29;20030;-74
2022/05/09 08:24:50;;;;;;;13.07;4.72;;;;;;;28.72;28.26;102507.06;4822378;29;20038;-73
2022/05/09 08:27:15;;;;;;;11.02;4.22;;;;;;;29.03;27.05;102498.72;4822083;29;20130;-73
2022/05/09 08:29:40;;;;;;;10.60;4.68;;;;;;;29.56;27.12;102498.19;4821974;29;20057;-74
2022/05/09 08:32:06;;;;;;;9.85;4.75;;;;;;;29.91;26.05;102497.94;4821888;29;20106;-74
2022/05/09 08:34:34;;;;;;;8.10;4.00;;;;;;;30.30;25.05;102508.06;4820755;29;20046;-74
2022/05/09 08:37:00;;;;;;;6.88;3.30;;;;;;;30.09;24.38;102498.34;4821943;29;20418;-74
2022/05/09 08:39:26;;;;;;;11.63;4.55;;;;;;;29.86;25.08;102502.66;4821856;29;20110;-73
2022/05/09 08:41:54;;;;;;;8.93;4.32;;;;;;;29.83;26.95;102505.97;4821747;29;20174;-73
2022/05/09 08:44:44;;;;;;;13.63;5.00;;;;;;;29.69;26.34;102503.06;4821484;29;20046;-74
2022/05/09 08:47:28;;;;;;;9.52;3.90;;;;;;;30.20;28.80;102504.56;4805463;29;20394;-74
2022/05/09 08:50:10;;;;;;;9.80;4.15;;;;;;;30.15;26.56;102499.91;4821563;29;20117;-74
2022/05/09 08:52:42;;;;;;;9.52;4.95;;;;;;;28.63;26.87;102492.25;4821725;29;20121;-73
2022/05/09 08:55:09;;;;;;;;;;;;;;;27.40;34.18;102505.94;4822371;29;20042;-73
2022/05/09 08:57:42;;;;;;;9.73;4.97;;;;;;;25.07;32.74;102493.69;4821582;29;19920;-73
2022/05/09 09:00:14;;;;;;;11.38;4.20;;;;;;;23.66;34.00;102492.88;4821535;29;20042;-73
2022/05/09 09:03:00;;;;;;;14.45;5.65;;;;;;;22.66;36.38;102494.91;4820872;29;20407;-73
2022/05/09 09:05:32;;;;;;;12.50;4.35;;;;;;;21.99;37.38;102489.72;4821137;29;20060;-73
2022/05/09 09:08:06;;;;;;;;;;;;;;;21.76;39.15;102489.66;4821876;29;20034;-73
2022/05/09 09:10:58;;;;;;;13.13;5.15;;;;;;;21.14;39.96;102492.53;4821527;29;19969;-73
2022/05/09 09:13:38;;;;;;;;;;;;;;;20.99;39.83;102482.09;4821917;29;20070;-73
2022/05/09 09:16:13;;;;;;;15.18;5.00;;;;;;;20.46;39.15;102477.16;4821262;29;20377;-73
2022/05/09 09:19:17;;;;;;;12.43;5.70;;;;;;;20.22;40.05;102476.97;4821253;29;20034;-73
2022/05/09 09:22:06;;;;;;;8.38;4.75;;;;;;;20.12;40.26;102476.63;4820719;29;20042;-73
2022/05/09 09:24:37;;;;;;;13.35;5.28;;;;;;;19.97;38.75;102474.25;4821515;29;20039;-74
2022/05/09 09:27:10;;;;;;;8.75;4.43;;;;;;;19.82;39.31;102469.16;4821365;29;20038;-73
2022/05/09 09:29:45;;;;;;;13.93;5.50;;;;;;;19.77;41.15;102468.16;4821499;29;20769;-74
2022/05/09 09:32:14;;;;;;;14.82;4.95;;;;;;;19.83;41.27;102467.25;4821101;29;20121;-74
2022/05/09 09:35:03;;;;;;;13.70;6.38;;;;;;;19.82;40.34;102466.44;4821047;29;20398;-74
2022/05/09 09:37:45;;;;;;;13.45;5.60;;;;;;;19.70;40.32;102466.31;4821149;29;20034;-74
2022/05/09 09:40:11;;;;;;;14.88;5.65;;;;;;;19.63;40.50;102467.38;4821128;29;20130;-74
2022/05/09 09:42:36;;;;;;;13.55;6.75;;;;;;;19.75;41.13;102468.34;4821019;29;20447;-74
2022/05/09 09:45:15;;;;;;;10.73;5.05;;;;;;;19.87;40.33;102461.19;4819382;29;20452;-73
2022/05/09 09:47:41;;;;;;;14.95;6.07;;;;;;;20.00;41.66;102462.16;4820850;29;20057;-74
2022/05/09 09:50:12;;;;;;;10.80;5.95;;;;;;;20.14;39.54;102466.41;4820962;29;20164;-74
2022/05/09 09:52:52;;;;;;;12.82;6.07;;;;;;;20.07;40.25;102476.47;4820850;29;20042;-74
2022/05/09 09:55:30;;;;;;;11.00;6.80;;;;;;;20.08;40.76;102465.41;4820390;29;20062;-73
2022/05/09 09:57:58;;;;;;;12.27;6.07;;;;;;;20.00;40.99;102462.97;4820531;29;20074;-73
2022/05/09 10:00:34;;;;;;;13.13;5.20;;;;;;;20.01;42.09;102452.97;4820794;29;20045;-72
2022/05/09 10:03:27;;;;;;;11.93;4.85;;;;;;;20.11;40.83;102461.44;4816555;29;20384;-73
2022/05/09 10:05:54;;;;;;;8.15;5.47;;;;;;;20.11;40.67;102450.59;4816595;29;20042;-73
2022/05/09 10:08:33;;;;;;;13.50;5.68;;;;;;;20.13;41.47;102443.91;4817055;29;20087;-73
2022/05/09 10:11:08;;;;;;;11.20;5.07;;;;;;;20.27;42.07;102444.59;4817003;29;20542;-73
2022/05/09 10:13:40;;;;;;;22.90;7.90;;;;;;;20.41;41.50;102439.91;4816465;29;20027;-76
2022/05/09 10:16:11;;;;;;;15.32;5.72;;;;;;;20.47;41.78;102433.59;4816337;29;20057;-75
2022/05/09 10:18:37;;;;;;;11.85;5.47;;;;;;;20.57;41.27;102436.66;4814737;29;20116;-74
2022/05/09 10:24:47;;;;;;;8.73;5.03;;;;;;;20.96;41.38;102431.81;4811492;29;20053;-72
2022/05/09 10:27:28;;;;;;;16.40;6.07;;;;;;;21.04;42.11;102427.97;4816786;29;21084;-74
2022/05/09 10:30:08;;;;;;;11.07;4.65;;;;;;;21.08;41.68;102422.91;4815162;29;20030;-73
2022/05/09 10:32:56;;;;;;;13.68;5.13;;;;;;;21.22;41.43;102421.66;4816054;29;20022;-72
2022/05/09 10:35:27;;;;;;;10.23;4.88;;;;;;;21.27;38.37;102418.25;4820099;29;20648;-72
2022/05/09 10:38:14;;;;;;;9.32;4.80;;;;;;;21.33;41.79;102409.22;4820401;29;20080;-71
2022/05/09 10:40:58;;;;;;;17.23;6.80;;;;;;;21.44;41.44;102409.28;4820524;29;20027;-72
2022/05/09 10:43:33;;;;;;;12.23;5.75;;;;;;;21.55;39.78;102409.56;4820326;29;20026;-71
2022/05/09 10:46:07;;;;;;;16.40;5.65;;;;;;;21.70;38.97;102399.09;4820052;29;20030;-72
2022/05/09 10:48:49;;;;;;;10.52;5.43;;;;;;;21.78;38.44;102403.34;4820026;29;20077;-72
2022/05/09 10:51:28;;;;;;;14.50;4.82;;;;;;;21.80;39.37;102399.34;4819932;29;20442;-71
2022/05/09 10:54:04;;;;;;;10.00;4.63;;;;;;;21.79;38.99;102396.84;4820105;29;20045;-71
2022/05/09 10:56:36;;;;;;;14.32;5.47;;;;;;;21.79;38.46;102394.13;4820083;29;20097;-72
2022/05/09 10:59:08;;;;;;;12.60;4.93;;;;;;;21.87;39.95;102391.88;4820252;29;20042;-71
2022/05/09 11:01:43;;;;;;;11.75;5.32;;;;;;;21.94;39.63;102390.97;4819855;29;20041;-71
2022/05/09 11:04:10;;;;;;;11.30;4.97;;;;;;;21.98;38.55;102390.25;4820089;29;20030;-72
2022/05/09 11:06:49;;;;;;;15.20;6.05;;;;;;;22.06;41.33;102387.19;4820101;29;20046;-72
2022/05/09 11:09:45;;;;;;;11.85;4.95;;;;;;;21.99;38.94;102386.47;4820072;29;20518;-71
2022/05/09 11:12:24;;;;;;;8.15;4.68;;;;;;;21.96;38.39;102383.41;4819814;29;20038;-71
2022/05/09 11:15:01;;;;;;;14.00;4.70;;;;;;;22.03;39.76;102376.81;4819997;29;20039;-74
2022/05/09 11:17:45;;;;;;;12.68;4.65;;;;;;;22.11;39.21;102381.03;4820018;29;20475;-74
2022/05/09 11:20:22;;;;;;;12.23;4.57;;;;;;;22.21;40.06;102372.31;4820109;29;20102;-74
2022/05/09 11:23:18;;;;;;;7.07;4.35;;;;;;;22.28;39.18;102375.75;4819957;29;20073;-74
2022/05/09 11:26:03;;;;;;;11.32;5.50;;;;;;;22.39;38.62;102372.19;4820102;29;20034;-74
2022/05/09 11:28:43;;;;;;;9.98;5.43;;;;;;;22.38;36.64;102370.53;4820087;29;20038;-73
2022/05/09 11:31:27;;;;;;;17.08;4.78;;;;;;;22.35;38.80;102371.03;4822898;29;20030;-74
2022/05/09 11:34:14;;;;;;;9.50;4.60;;;;;;;22.44;38.85;102363.31;4822918;29;20459;-74
2022/05/09 11:36:49;;;;;;;10.57;4.97;;;;;;;22.49;38.65;102358.81;4823112;29;20042;-74
2022/05/09 11:39:39;;;;;;;13.27;4.57;;;;;;;22.49;40.26;102356.09;4822740;29;20034;-74
2022/05/09 11:45:16;;;;;;;10.73;4.82;;;;;;;22.48;38.01;102348.19;4822988;29;20037;-73
2022/05/09 11:47:57;;;;;;;12.00;4.60;;;;;;;22.56;38.33;102344.25;4821607;29;20299;-74
2022/05/09 11:50:25;;;;;;;11.60;5.05;;;;;;;22.69;39.62;102352.16;4822549;29;20087;-74
2022/05/09 11:52:52;;;;;;;11.13;4.97;;;;;;;22.73;37.88;102337.81;4822682;29;20073;-74